馬公航空站 - ATIS

METAR RCQC 230530Z 21011KT 9999 FEW010 28/22 Q1010 NOSIG RMK A2985=

站台狀態:Online
最後更新:2019-04-23 13:45:02